createdAt,value
2018-07-10T00:02:49.367Z,20.74
2018-07-10T00:08:33.861Z,20.88
2018-07-10T00:11:21.741Z,20.91
2018-07-10T00:13:51.799Z,20.95
2018-07-10T00:16:22.203Z,20.76
2018-07-10T00:18:53.035Z,20.89
2018-07-10T00:21:23.334Z,20.71
2018-07-10T00:23:53.400Z,20.63
2018-07-10T00:26:23.607Z,20.90
2018-07-10T00:28:53.752Z,20.64
2018-07-10T00:31:24.012Z,20.83
2018-07-10T00:33:54.379Z,20.55
2018-07-10T00:36:24.705Z,20.57
2018-07-10T00:39:01.258Z,20.63
2018-07-10T00:41:32.842Z,20.58
2018-07-10T00:44:04.164Z,20.87
2018-07-10T00:46:36.687Z,20.69
2018-07-10T00:49:06.951Z,20.79
2018-07-10T00:51:38.416Z,20.75
2018-07-10T00:54:08.819Z,20.50
2018-07-10T00:56:39.144Z,20.40
2018-07-10T00:59:09.203Z,20.40
2018-07-10T01:01:39.510Z,20.40
2018-07-10T01:04:09.541Z,20.51
2018-07-10T01:06:39.576Z,20.54
2018-07-10T01:09:14.382Z,20.43
2018-07-10T01:11:44.675Z,20.53
2018-07-10T01:14:14.670Z,20.52
2018-07-10T01:16:44.772Z,20.58
2018-07-10T01:19:17.271Z,20.55
2018-07-10T01:21:48.450Z,20.59
2018-07-10T01:24:19.758Z,20.65
2018-07-10T01:26:51.016Z,20.89
2018-07-10T01:29:26.708Z,20.68
2018-07-10T01:31:57.179Z,20.74
2018-07-10T01:34:27.670Z,20.72
2018-07-10T01:36:59.242Z,20.69
2018-07-10T01:39:30.029Z,20.73
2018-07-10T01:42:00.036Z,20.75
2018-07-10T01:44:30.349Z,20.73
2018-07-10T01:47:00.543Z,20.78
2018-07-10T01:49:30.626Z,20.80
2018-07-10T01:52:01.079Z,20.74
2018-07-10T01:54:31.469Z,20.73
2018-07-10T01:57:01.715Z,20.71
2018-07-10T01:59:31.965Z,20.67
2018-07-10T02:02:01.996Z,20.63
2018-07-10T02:04:33.101Z,20.61
2018-07-10T02:07:08.366Z,20.62
2018-07-10T02:09:39.010Z,20.63
2018-07-10T02:12:09.928Z,20.70
2018-07-10T02:14:40.189Z,20.62
2018-07-10T02:17:10.575Z,20.64
2018-07-10T02:19:40.630Z,20.68
2018-07-10T02:22:10.819Z,20.63
2018-07-10T02:24:41.601Z,20.70
2018-07-10T02:27:11.964Z,20.65
2018-07-10T02:29:42.426Z,20.66
2018-07-10T02:32:12.566Z,20.66
2018-07-10T02:34:42.625Z,20.73
2018-07-10T02:37:12.827Z,20.67
2018-07-10T02:39:42.894Z,20.59
2018-07-10T02:42:12.911Z,20.60
2018-07-10T02:44:43.622Z,20.62
2018-07-10T02:47:13.611Z,20.62
2018-07-10T02:49:44.726Z,20.52
2018-07-10T02:52:14.743Z,20.53
2018-07-10T02:54:45.498Z,20.54
2018-07-10T02:57:15.582Z,20.51
2018-07-10T02:59:46.815Z,20.53
2018-07-10T03:02:22.520Z,20.54
2018-07-10T03:04:58.050Z,20.56
2018-07-10T03:07:28.488Z,20.55
2018-07-10T03:09:59.219Z,20.67
2018-07-10T03:12:31.265Z,20.65
2018-07-10T03:15:10.557Z,20.70
2018-07-10T03:17:40.639Z,20.67
2018-07-10T03:20:11.158Z,20.76
2018-07-10T03:22:41.359Z,20.83
2018-07-10T03:25:11.834Z,20.89
2018-07-10T03:27:42.217Z,20.88
2018-07-10T03:30:12.656Z,21.00
2018-07-10T03:32:42.633Z,21.05
2018-07-10T03:35:12.793Z,20.97
2018-07-10T03:37:43.293Z,20.84
2018-07-10T03:40:13.454Z,20.76
2018-07-10T03:42:43.603Z,20.60
2018-07-10T03:45:14.033Z,20.58
2018-07-10T03:50:13.005Z,20.68
2018-07-10T03:52:44.223Z,20.82
2018-07-10T03:55:15.474Z,20.88
2018-07-10T03:57:45.633Z,20.84
2018-07-10T04:00:16.517Z,20.95
2018-07-10T04:02:49.983Z,21.01
2018-07-10T04:05:22.671Z,20.97
2018-07-10T04:07:55.190Z,20.96
2018-07-10T04:10:27.606Z,20.87
2018-07-10T04:12:58.509Z,20.84
2018-07-10T04:15:28.589Z,20.87
2018-07-10T04:18:07.063Z,21.15
2018-07-10T04:21:45.726Z,20.92
2018-07-10T04:24:19.033Z,20.95
2018-07-10T04:27:26.204Z,21.07
2018-07-10T04:30:10.240Z,20.97
2018-07-10T04:32:41.534Z,21.03
2018-07-10T04:35:14.500Z,21.02
2018-07-10T04:37:49.953Z,21.08
2018-07-10T04:40:21.077Z,21.29
2018-07-10T04:43:01.511Z,21.29
2018-07-10T04:45:40.913Z,21.53
2018-07-10T04:48:23.249Z,21.41
2018-07-10T04:50:54.483Z,21.57
2018-07-10T04:53:31.552Z,21.63
2018-07-10T04:56:02.103Z,21.90
2018-07-10T04:58:32.150Z,21.87
2018-07-10T05:01:03.758Z,21.87
2018-07-10T05:03:34.155Z,21.84
2018-07-10T05:06:07.155Z,21.87
2018-07-10T05:08:37.083Z,21.96
2018-07-10T05:11:07.342Z,21.89
2018-07-10T05:13:37.758Z,21.93
2018-07-10T05:16:08.490Z,22.17
2018-07-10T05:18:39.030Z,22.04
2018-07-10T05:21:15.418Z,22.12
2018-07-10T05:23:46.063Z,22.45
2018-07-10T05:26:17.282Z,22.42
2018-07-10T05:28:51.475Z,22.39
2018-07-10T05:31:22.002Z,22.29
2018-07-10T05:33:52.904Z,22.47
2018-07-10T05:36:24.406Z,22.39
2018-07-10T05:39:11.674Z,22.47
2018-07-10T05:41:47.320Z,22.34
2018-07-10T05:44:20.920Z,22.60
2018-07-10T05:46:52.091Z,22.70
2018-07-10T05:49:22.506Z,23.02
2018-07-10T05:51:53.343Z,23.29
2018-07-10T05:54:24.191Z,23.27
2018-07-10T05:56:54.429Z,23.12
2018-07-10T05:59:24.966Z,23.16
2018-07-10T06:01:56.070Z,22.99
2018-07-10T06:04:26.536Z,22.78
2018-07-10T06:07:03.505Z,22.73
2018-07-10T06:09:33.878Z,22.84
2018-07-10T06:12:04.825Z,22.94
2018-07-10T06:14:34.902Z,23.61
2018-07-10T06:17:05.102Z,23.92
2018-07-10T06:19:35.150Z,23.79
2018-07-10T06:22:05.317Z,23.50
2018-07-10T06:24:35.483Z,23.78
2018-07-10T06:44:01.004Z,25.25
2018-07-10T06:46:40.181Z,25.54
2018-07-10T06:49:24.287Z,25.75
2018-07-10T06:52:17.236Z,25.80
2018-07-10T06:55:01.477Z,25.15
2018-07-10T06:57:36.615Z,25.68
2018-07-10T07:00:09.708Z,26.36
2018-07-10T07:02:40.335Z,25.82
2018-07-10T07:05:10.632Z,25.32
2018-07-10T07:07:40.880Z,24.69
2018-07-10T07:10:12.308Z,24.32
2018-07-10T07:12:43.089Z,24.27
2018-07-10T07:15:14.824Z,23.90
2018-07-10T07:17:47.552Z,23.88
2018-07-10T07:20:17.668Z,23.63
2018-07-10T07:22:47.926Z,23.82
2018-07-10T07:25:18.300Z,23.87
2018-07-10T07:27:48.323Z,23.80
2018-07-10T07:30:18.310Z,23.89
2018-07-10T07:32:49.242Z,23.80
2018-07-10T07:35:19.310Z,24.18
2018-07-10T07:37:49.450Z,24.18
2018-07-10T07:40:19.626Z,23.99
2018-07-10T07:42:49.582Z,24.26
2018-07-10T07:45:19.986Z,24.36
2018-07-10T07:47:50.443Z,24.12
2018-07-10T07:50:21.696Z,24.54
2018-07-10T07:52:51.818Z,24.63
2018-07-10T07:55:21.972Z,24.57
2018-07-10T07:57:51.935Z,24.71
2018-07-10T08:00:22.028Z,25.15
2018-07-10T08:02:52.777Z,24.87
2018-07-10T08:05:22.927Z,24.80
2018-07-10T08:07:52.969Z,25.01
2018-07-10T08:10:22.956Z,25.25
2018-07-10T08:12:53.182Z,25.23
2018-07-10T08:15:24.012Z,25.07
2018-07-10T08:17:54.594Z,25.39
2018-07-10T08:20:25.098Z,25.09
2018-07-10T08:22:55.327Z,25.87
2018-07-10T08:25:26.283Z,26.00
2018-07-10T08:27:56.768Z,25.82
2018-07-10T08:30:27.579Z,25.48
2018-07-10T08:32:58.211Z,26.53
2018-07-10T08:35:28.539Z,26.77
2018-07-10T08:37:59.205Z,26.72
2018-07-10T08:40:29.710Z,26.12
2018-07-10T08:43:00.267Z,25.99
2018-07-10T08:45:30.730Z,26.47
2018-07-10T08:48:02.410Z,26.67
2018-07-10T08:50:33.096Z,27.15
2018-07-10T08:53:03.390Z,26.70
2018-07-10T08:55:33.614Z,26.14
2018-07-10T08:58:04.000Z,25.74
2018-07-10T09:00:34.241Z,27.34
2018-07-10T09:03:04.532Z,27.24
2018-07-10T09:05:34.875Z,27.40
2018-07-10T09:08:04.964Z,26.72
2018-07-10T09:10:35.316Z,26.59
2018-07-10T09:13:05.799Z,27.25
2018-07-10T09:15:35.982Z,27.26
2018-07-10T09:18:06.812Z,28.58
2018-07-10T09:20:41.856Z,28.51
2018-07-10T09:23:12.385Z,28.18
2018-07-10T09:25:42.628Z,27.70
2018-07-10T09:28:13.415Z,27.46
2018-07-10T09:30:44.013Z,27.45
2018-07-10T09:33:14.434Z,27.44
2018-07-10T09:35:44.734Z,27.97
2018-07-10T09:38:15.016Z,28.88
2018-07-10T09:40:46.251Z,29.65
2018-07-10T09:43:16.762Z,29.34
2018-07-10T09:45:46.958Z,28.92
2018-07-10T09:48:17.159Z,27.95
2018-07-10T09:50:47.362Z,28.46
2018-07-10T09:53:17.519Z,28.44
2018-07-10T09:55:47.684Z,29.86
2018-07-10T09:58:17.879Z,28.95
2018-07-10T10:00:53.993Z,29.76
2018-07-10T10:03:25.105Z,28.81
2018-07-10T10:05:55.439Z,29.64
2018-07-10T10:08:25.863Z,30.02
2018-07-10T10:10:56.062Z,29.30
2018-07-10T10:13:26.462Z,28.95
2018-07-10T10:15:56.722Z,29.44
2018-07-10T10:18:28.108Z,29.38
2018-07-10T10:20:58.834Z,29.14
2018-07-10T10:23:29.074Z,27.95
2018-07-10T10:25:59.334Z,28.14
2018-07-10T10:28:29.752Z,29.11
2018-07-10T10:31:00.241Z,29.73
2018-07-10T10:33:30.570Z,28.78
2018-07-10T10:36:01.415Z,29.41
2018-07-10T10:38:31.828Z,29.76
2018-07-10T10:41:03.534Z,28.89
2018-07-10T10:43:33.889Z,29.57
2018-07-10T10:46:04.170Z,29.58
2018-07-10T10:48:35.387Z,29.50
2018-07-10T10:51:05.621Z,29.15
2018-07-10T10:53:35.879Z,29.20
2018-07-10T10:56:06.216Z,29.40
2018-07-10T10:58:36.924Z,29.64
2018-07-10T11:01:07.410Z,29.02
2018-07-10T11:03:37.647Z,29.23
2018-07-10T11:06:07.906Z,28.49
2018-07-10T11:08:37.979Z,28.15
2018-07-10T11:11:08.289Z,28.38
2018-07-10T11:13:38.887Z,27.73
2018-07-10T11:16:09.252Z,28.11
2018-07-10T11:18:51.042Z,27.17
2018-07-10T11:21:28.786Z,27.51
2018-07-10T11:23:59.779Z,28.19
2018-07-10T11:26:37.283Z,28.16
2018-07-10T11:29:08.098Z,28.35
2018-07-10T11:31:38.879Z,29.05
2018-07-10T11:34:09.304Z,29.00
2018-07-10T11:36:39.546Z,29.20
2018-07-10T11:39:12.347Z,29.87
2018-07-10T11:41:50.601Z,29.66
2018-07-10T11:44:21.238Z,29.02
2018-07-10T11:46:51.478Z,28.35
2018-07-10T11:49:21.693Z,29.84
2018-07-10T11:51:52.214Z,29.01
2018-07-10T11:54:22.938Z,28.52
2018-07-10T11:56:53.650Z,30.16
2018-07-10T11:59:23.874Z,31.61
2018-07-10T12:01:54.232Z,30.06
2018-07-10T12:04:24.994Z,29.36
2018-07-10T12:06:54.982Z,28.85
2018-07-10T12:09:24.952Z,29.27
2018-07-10T12:11:55.192Z,28.97
2018-07-10T12:14:25.590Z,29.70
2018-07-10T12:16:56.014Z,30.77
2018-07-10T12:19:26.330Z,31.56
2018-07-10T12:21:56.765Z,30.79
2018-07-10T12:24:26.975Z,30.35
2018-07-10T12:26:57.404Z,29.38
2018-07-10T12:29:27.993Z,29.00
2018-07-10T12:31:59.111Z,29.14
2018-07-10T12:34:29.437Z,29.28
2018-07-10T12:36:59.682Z,28.80
2018-07-10T12:39:30.210Z,28.22
2018-07-10T12:42:00.463Z,28.24
2018-07-10T12:44:30.978Z,30.02
2018-07-10T12:47:01.382Z,30.53
2018-07-10T12:49:31.755Z,30.51
2018-07-10T12:52:02.056Z,30.17
2018-07-10T12:54:32.420Z,31.45
2018-07-10T12:57:02.959Z,32.21
2018-07-10T12:59:33.416Z,32.33
2018-07-10T13:02:03.720Z,32.22
2018-07-10T13:04:33.961Z,31.23
2018-07-10T13:07:09.264Z,31.13
2018-07-10T13:09:39.530Z,32.68
2018-07-10T13:12:09.574Z,32.67
2018-07-10T13:14:45.587Z,33.50
2018-07-10T13:17:15.711Z,34.08
2018-07-10T13:19:45.795Z,34.24
2018-07-10T13:22:16.506Z,34.13
2018-07-10T13:24:46.991Z,32.90
2018-07-10T13:27:17.021Z,35.01
2018-07-10T13:29:47.171Z,35.10
2018-07-10T13:32:17.374Z,34.78
2018-07-10T13:34:47.892Z,36.35
2018-07-10T13:37:18.511Z,35.68
2018-07-10T13:39:48.878Z,35.45
2018-07-10T13:42:19.092Z,36.54
2018-07-10T13:44:49.630Z,36.46
2018-07-10T13:47:20.188Z,36.45
2018-07-10T13:49:50.296Z,36.51
2018-07-10T13:52:20.385Z,36.64
2018-07-10T13:54:50.395Z,36.27
2018-07-10T13:57:20.532Z,37.14
2018-07-10T13:59:50.750Z,36.93
2018-07-10T14:02:21.184Z,36.94
2018-07-10T14:04:51.662Z,37.08
2018-07-10T14:07:21.791Z,35.64
2018-07-10T14:09:51.706Z,36.31
2018-07-10T14:12:22.131Z,34.67
2018-07-10T14:14:52.191Z,34.27
2018-07-10T14:17:22.436Z,36.44
2018-07-10T14:19:52.810Z,35.53
2018-07-10T14:22:25.536Z,36.65
2018-07-10T14:24:55.643Z,35.19
2018-07-10T14:27:25.855Z,36.81
2018-07-10T14:29:56.103Z,36.14
2018-07-10T14:32:26.136Z,37.70
2018-07-10T14:34:56.415Z,37.01
2018-07-10T14:37:26.438Z,37.98
2018-07-10T14:39:58.464Z,38.79
2018-07-10T14:42:29.258Z,37.82
2018-07-10T14:45:03.740Z,36.43
2018-07-10T14:47:34.279Z,36.90
2018-07-10T14:50:05.041Z,37.22
2018-07-10T14:52:35.364Z,37.36
2018-07-10T14:55:05.358Z,36.69
2018-07-10T14:57:35.547Z,37.50
2018-07-10T15:00:06.314Z,36.60
2018-07-10T15:02:36.922Z,36.85
2018-07-10T15:05:07.390Z,37.05
2018-07-10T15:07:38.064Z,37.09
2018-07-10T15:10:08.227Z,36.50
2018-07-10T15:12:38.833Z,35.08
2018-07-10T15:15:09.392Z,34.61
2018-07-10T15:17:44.663Z,33.84
2018-07-10T15:20:14.771Z,33.00
2018-07-10T15:22:45.080Z,32.81
2018-07-10T15:25:15.184Z,32.58
2018-07-10T15:27:45.429Z,33.49
2018-07-10T15:30:15.476Z,34.71
2018-07-10T15:32:45.873Z,36.34
2018-07-10T15:35:16.044Z,37.12
2018-07-10T15:37:46.371Z,37.30
2018-07-10T15:40:16.426Z,36.91
2018-07-10T15:42:46.831Z,37.48
2018-07-10T15:45:17.226Z,37.97
2018-07-10T15:47:47.609Z,38.05
2018-07-10T15:50:17.650Z,37.75
2018-07-10T15:52:47.731Z,38.57
2018-07-10T15:55:18.142Z,36.17
2018-07-10T15:57:48.338Z,35.49
2018-07-10T16:00:18.904Z,35.60
2018-07-10T16:02:49.750Z,36.40
2018-07-10T16:05:20.394Z,35.89
2018-07-10T16:07:50.630Z,35.76
2018-07-10T16:10:20.502Z,35.54
2018-07-10T16:12:50.805Z,35.09
2018-07-10T16:15:20.849Z,35.02
2018-07-10T16:17:50.899Z,35.19
2018-07-10T16:20:21.310Z,34.77
2018-07-10T16:22:51.634Z,34.05
2018-07-10T16:25:33.301Z,33.91
2018-07-10T16:28:11.079Z,34.13
2018-07-10T16:30:41.426Z,33.32
2018-07-10T16:33:13.870Z,33.32
2018-07-10T16:35:43.990Z,33.53
2018-07-10T16:38:14.710Z,33.68
2018-07-10T16:40:44.939Z,32.50
2018-07-10T16:43:20.243Z,32.84
2018-07-10T16:45:50.562Z,33.27
2018-07-10T16:48:24.576Z,34.18
2018-07-10T16:51:02.261Z,33.14
2018-07-10T16:53:34.136Z,32.98
2018-07-10T16:56:04.297Z,32.85
2018-07-10T16:58:38.419Z,33.02
2018-07-10T17:01:08.971Z,30.57
2018-07-10T17:03:39.293Z,29.46
2018-07-10T17:06:09.656Z,29.21
2018-07-10T17:08:39.601Z,28.36
2018-07-10T17:11:10.111Z,27.83
2018-07-10T17:13:40.422Z,27.59
2018-07-10T17:16:10.460Z,27.15
2018-07-10T17:18:41.303Z,27.12
2018-07-10T17:21:11.502Z,27.19
2018-07-10T17:23:41.989Z,26.89
2018-07-10T17:26:12.454Z,26.46
2018-07-10T17:28:43.395Z,26.51
2018-07-10T17:31:13.482Z,26.61
2018-07-10T17:33:43.744Z,26.48
2018-07-10T17:36:13.831Z,26.35
2018-07-10T17:38:44.687Z,26.27
2018-07-10T17:41:15.137Z,26.08
2018-07-10T17:43:45.571Z,25.94
2018-07-10T17:46:15.604Z,24.94
2018-07-10T17:48:46.708Z,24.96
2018-07-10T17:51:16.681Z,24.94
2018-07-10T17:53:47.001Z,25.18
2018-07-10T17:56:17.153Z,25.14
2018-07-10T17:58:47.742Z,24.79
2018-07-10T18:01:17.972Z,24.66
2018-07-10T18:03:48.483Z,24.44
2018-07-10T18:06:19.006Z,24.54
2018-07-10T18:08:49.242Z,24.12
2018-07-10T18:11:19.439Z,24.05
2018-07-10T18:13:49.823Z,24.00
2018-07-10T18:16:20.028Z,24.17
2018-07-10T18:18:50.204Z,23.93
2018-07-10T18:21:20.686Z,23.79
2018-07-10T18:23:51.127Z,23.93
2018-07-10T18:26:21.430Z,23.94
2018-07-10T18:28:51.614Z,24.12
2018-07-10T18:31:22.054Z,23.98
2018-07-10T18:33:52.088Z,23.75
2018-07-10T18:36:22.398Z,23.74
2018-07-10T18:38:52.586Z,23.73
2018-07-10T18:41:22.824Z,23.54
2018-07-10T18:43:52.999Z,23.62
2018-07-10T18:46:23.042Z,23.79
2018-07-10T18:48:53.455Z,24.00
2018-07-10T18:51:24.097Z,23.84
2018-07-10T18:53:54.310Z,23.41
2018-07-10T18:56:25.117Z,23.27
2018-07-10T18:59:12.749Z,23.19
2018-07-10T19:01:52.111Z,23.15
2018-07-10T19:04:25.974Z,23.14
2018-07-10T19:07:01.525Z,23.01
2018-07-10T19:09:34.436Z,23.15
2018-07-10T19:12:09.207Z,23.06
2018-07-10T19:14:39.684Z,22.85
2018-07-10T19:17:12.767Z,22.91
2018-07-10T19:19:47.840Z,23.03
2018-07-10T19:22:18.005Z,23.31
2018-07-10T19:24:48.387Z,23.01
2018-07-10T19:27:29.757Z,22.86
2018-07-10T19:30:06.127Z,22.80
2018-07-10T19:32:36.968Z,22.74
2018-07-10T19:35:07.073Z,22.65
2018-07-10T19:37:38.083Z,22.57
2018-07-10T19:40:08.429Z,22.69
2018-07-10T19:42:40.292Z,22.67
2018-07-10T19:45:11.172Z,22.66
2018-07-10T19:47:41.871Z,22.78
2018-07-10T19:50:17.773Z,23.21
2018-07-10T19:52:55.893Z,23.04
2018-07-10T19:55:28.009Z,23.05
2018-07-10T19:58:06.627Z,23.01
2018-07-10T20:00:43.827Z,23.07
2018-07-10T20:03:27.742Z,22.79
2018-07-10T20:06:02.230Z,22.72
2018-07-10T20:08:32.577Z,22.81
2018-07-10T20:11:06.639Z,22.80
2018-07-10T20:13:47.237Z,22.69
2018-07-10T20:16:53.296Z,22.66
2018-07-10T20:20:07.928Z,22.54
2018-07-10T20:22:48.191Z,22.47
2018-07-10T20:25:33.309Z,22.42
2018-07-10T20:28:11.494Z,22.40
2018-07-10T20:30:55.122Z,22.43
2018-07-10T20:35:37.366Z,22.42
2018-07-10T20:38:07.778Z,22.29
2018-07-10T20:40:40.403Z,22.23
2018-07-10T20:43:13.506Z,22.17
2018-07-10T20:45:45.473Z,22.09
2018-07-10T20:48:23.218Z,22.05
2018-07-10T20:51:05.797Z,22.07
2018-07-10T20:54:08.182Z,22.22
2018-07-10T20:58:54.358Z,22.32
2018-07-10T21:01:30.853Z,22.24
2018-07-10T21:04:06.642Z,22.29
2018-07-10T21:06:45.244Z,22.40
2018-07-10T21:09:15.507Z,22.35
2018-07-10T21:12:24.658Z,22.26
2018-07-10T21:15:03.064Z,22.28
2018-07-10T21:19:40.934Z,22.24
2018-07-10T21:22:51.434Z,22.18
2018-07-10T21:25:36.124Z,22.21
2018-07-10T21:29:16.047Z,22.23
2018-07-10T21:31:56.111Z,22.16
2018-07-10T21:34:37.338Z,22.11
2018-07-10T21:39:17.087Z,22.09
2018-07-10T21:42:04.763Z,22.18
2018-07-10T21:45:13.415Z,22.16
2018-07-10T21:47:57.610Z,22.09
2018-07-10T21:50:34.866Z,22.09
2018-07-10T21:53:04.963Z,22.20
2018-07-10T21:55:35.111Z,22.33
2018-07-10T21:58:05.384Z,22.28
2018-07-10T22:00:46.214Z,22.24
2018-07-10T22:03:16.791Z,22.32
2018-07-10T22:05:47.578Z,22.23
2018-07-10T22:08:17.710Z,22.22
2018-07-10T22:10:48.390Z,22.19
2018-07-10T22:13:18.779Z,22.11
2018-07-10T22:15:49.012Z,22.10
2018-07-10T22:18:19.285Z,22.11
2018-07-10T22:20:49.510Z,22.06
2018-07-10T22:23:20.036Z,22.02
2018-07-10T22:25:50.350Z,22.00
2018-07-10T22:28:20.548Z,22.04
2018-07-10T22:32:57.021Z,21.97
2018-07-10T22:35:27.240Z,21.87
2018-07-10T22:37:57.411Z,21.79
2018-07-10T22:40:27.678Z,21.74
2018-07-10T22:42:58.644Z,21.71
2018-07-10T22:45:28.926Z,21.72
2018-07-10T22:47:59.045Z,21.63
2018-07-10T22:50:29.678Z,21.61
2018-07-10T22:53:01.671Z,21.59
2018-07-10T22:55:33.182Z,21.56
2018-07-10T22:58:08.282Z,21.54
2018-07-10T23:00:39.773Z,21.57
2018-07-10T23:03:21.512Z,21.57
2018-07-10T23:05:52.122Z,21.55
2018-07-10T23:08:34.623Z,21.56
2018-07-10T23:11:05.266Z,21.53
2018-07-10T23:13:38.147Z,21.55
2018-07-10T23:16:07.742Z,21.55
2018-07-10T23:18:37.382Z,21.61
2018-07-10T23:21:07.392Z,21.59
2018-07-10T23:23:37.237Z,21.63
2018-07-10T23:26:06.987Z,21.60
2018-07-10T23:28:36.903Z,21.55
2018-07-10T23:31:06.596Z,21.57
2018-07-10T23:33:36.564Z,21.49
2018-07-10T23:36:06.570Z,21.51
2018-07-10T23:38:40.566Z,21.44
2018-07-10T23:41:18.616Z,21.45
2018-07-10T23:43:49.067Z,21.31
2018-07-10T23:46:25.478Z,21.24
2018-07-10T23:48:58.390Z,21.28
2018-07-10T23:51:28.506Z,21.22
2018-07-10T23:53:58.103Z,21.20
2018-07-10T23:56:27.661Z,21.30
2018-07-10T23:58:58.404Z,21.29
